Epic Capri — 9HA2845 — position and weather

sailwx.info

Track history (hours):
 
Tides and Currents Weather Stations Pressure Air Temp Water Temp Dewpoint Dewpoint Depression Visibility Wind Speed Wind Dir Waves Ship Positions

Epic Capri

Last reported at 2017-Feb-21 18:32 UTC. Time now 2017-Feb-21 19:06 UTC.
Position N 37°57' W 008°53'.

Length 99 m; draft 5 m.

Type: Ship (hazmat cat B). MMSI: 256325000.

Date/timePositionNaut miles runAvg speedWind from/ knotsBaromVisibWave heightAir tempDewpointWater temp
2017-Feb-21 18:32N 37°57' W 008°53'0 0.0
2017-Feb-21 17:32N 37°57' W 008°53'0 0.0
2017-Feb-21 16:31N 37°57' W 008°53'0 0.0
2017-Feb-21 15:32N 37°57' W 008°53'0 0.0
2017-Feb-21 14:31N 37°57' W 008°53'0 0.0
2017-Feb-21 13:32N 37°57' W 008°53'0 0.0
2017-Feb-21 12:32N 37°57' W 008°53'0 0.0
2017-Feb-21 11:32N 37°57' W 008°53'0 0.0
2017-Feb-21 10:32N 37°57' W 008°53'0 0.0
2017-Feb-21 09:29N 37°57' W 008°53'2 2.7
2017-Feb-21 08:33N 37°55' W 008°52'0 0.1
2017-Feb-21 07:33N 37°55' W 008°52'0 0.0
2017-Feb-21 06:33N 37°55' W 008°52'0 0.0
2017-Feb-21 05:33N 37°55' W 008°52'0 0.0
2017-Feb-21 04:33N 37°55' W 008°52'0 0.0
2017-Feb-21 03:33N 37°55' W 008°52'0 0.0
2017-Feb-21 02:33N 37°55' W 008°52'0 0.0
2017-Feb-21 01:33N 37°55' W 008°52'0 0.0
2017-Feb-21 00:33N 37°55' W 008°52'0 0.0
2017-Feb-20 23:33N 37°55' W 008°51'0 0.1
2017-Feb-20 22:33N 37°55' W 008°52'0 0.0
2017-Feb-20 21:33N 37°55' W 008°52'0 0.0
2017-Feb-20 20:33N 37°55' W 008°52'0 0.0
2017-Feb-20 19:33N 37°55' W 008°52'0 0.0
2017-Feb-20 18:33N 37°55' W 008°52'0 0.0
2017-Feb-20 17:30N 37°55' W 008°52'0 0.0
2017-Feb-20 16:33N 37°55' W 008°52'0 0.0
2017-Feb-20 15:33N 37°55' W 008°52'0 0.0
2017-Feb-20 14:33N 37°55' W 008°52'0 0.0
2017-Feb-20 13:33N 37°55' W 008°52'0 0.0
2017-Feb-20 12:33N 37°55' W 008°52'0 0.0
2017-Feb-20 11:33N 37°55' W 008°52'0 0.1
2017-Feb-20 10:33N 37°55' W 008°51'6 5.6
2017-Feb-20 09:33N 37°53' W 008°58'1010.1
2017-Feb-20 08:33N 37°53' W 009°11'10 9.6
2017-Feb-20 07:33N 37°52' W 009°23'11 9.5
2017-Feb-20 06:26N 37°51' W 009°37'5110.0
2017-Feb-20 01:19N 37°53' W 010°41'810.1
2017-Feb-20 00:31N 37°53' W 010°51'  
2017-Feb-17 09:33N 37°52' W 024°05'1110.9
2017-Feb-17 08:33N 37°49' W 024°18'1110.9
2017-Feb-17 07:34N 37°46' W 024°31'1111.0
2017-Feb-17 06:33N 37°43' W 024°45'1111.1
2017-Feb-17 05:33N 37°40' W 024°58'1111.2
2017-Feb-17 04:34N 37°40' W 025°13'1111.3
2017-Feb-17 03:34N 37°40' W 025°27'10 9.9
2017-Feb-17 02:33N 37°44' W 025°38'1 1.3
2017-Feb-17 01:31N 37°44' W 025°40'0 0.0
2017-Feb-17 00:31N 37°44' W 025°40'0 0.0
2017-Feb-16 23:31N 37°44' W 025°40'0 0.0
2017-Feb-16 22:31N 37°44' W 025°40'0 0.0
2017-Feb-16 21:31N 37°44' W 025°40'0 0.0
2017-Feb-16 20:31N 37°44' W 025°40'0 0.0
2017-Feb-16 19:31N 37°44' W 025°40'0 0.0
2017-Feb-16 18:31N 37°44' W 025°40'0 0.0
2017-Feb-16 17:31N 37°44' W 025°40'0 0.0
2017-Feb-16 16:31N 37°44' W 025°40'0 0.0
2017-Feb-16 15:31N 37°44' W 025°40'0 0.0
2017-Feb-16 14:31N 37°44' W 025°40'0 0.0
2017-Feb-16 13:31N 37°44' W 025°40'0 0.0
2017-Feb-16 12:31N 37°44' W 025°40'0 0.0
2017-Feb-16 11:31N 37°44' W 025°40'0 0.0
2017-Feb-16 10:31N 37°44' W 025°40'0 0.0
2017-Feb-16 09:31N 37°44' W 025°40'1 1.1
2017-Feb-16 08:34N 37°44' W 025°39'1 1.4
2017-Feb-16 07:34N 37°42' W 025°40'2 2.0
2017-Feb-16 06:33N 37°43' W 025°42'4 3.9
2017-Feb-16 05:33N 37°44' W 025°47'1010.1
2017-Feb-16 04:34N 37°51' W 025°56'1010.1
2017-Feb-16 03:33N 37°58' W 026°05'1110.7
2017-Feb-16 02:34N 38°06' W 026°15'1010.4
2017-Feb-16 01:33N 38°13' W 026°24'1010.4
2017-Feb-16 00:34N 38°21' W 026°33'1010.4
2017-Feb-15 23:33N 38°28' W 026°42'1010.2
2017-Feb-15 22:33N 38°35' W 026°51'10 9.5
2017-Feb-15 21:33N 38°42' W 027°00'2 0.2
2017-Feb-15 10:33N 38°43' W 027°03'3 2.9
2017-Feb-15 09:33N 38°41' W 027°00'8 8.1
2017-Feb-15 08:31N 38°35' W 027°07'1010.3
2017-Feb-15 07:33N 38°32' W 027°19'1010.5
2017-Feb-15 06:33N 38°30' W 027°32'1010.5
2017-Feb-15 05:33N 38°28' W 027°45'1110.7
2017-Feb-15 04:33N 38°30' W 027°59'1110.6
2017-Feb-15 03:33N 38°34' W 028°11'1110.7
2017-Feb-15 02:33N 38°36' W 028°25'10 9.8
2017-Feb-15 01:33N 38°32' W 028°36'1 0.8
2017-Feb-15 00:33N 38°32' W 028°37'0 0.0
2017-Feb-14 23:33N 38°32' W 028°37'0 0.0
2017-Feb-14 22:33N 38°32' W 028°37'0 0.0
2017-Feb-14 21:33N 38°32' W 028°37'0 0.0
2017-Feb-14 20:33N 38°32' W 028°37'0 0.0
2017-Feb-14 19:33N 38°32' W 028°37'0 0.0
2017-Feb-14 18:33N 38°32' W 028°37'0 0.0
2017-Feb-14 17:33N 38°32' W 028°37'3 2.8
2017-Feb-14 16:33N 38°33' W 028°34'0 0.4
2017-Feb-14 15:33N 38°33' W 028°34'0 0.5
2017-Feb-14 14:34N 38°33' W 028°34'6 5.6
2017-Feb-14 13:33N 38°36' W 028°28'10 9.7
2017-Feb-14 12:33N 38°35' W 028°16'10 9.9
2017-Feb-14 11:33N 38°32' W 028°04'1010.4
2017-Feb-14 10:33N 38°28' W 027°52'1010.4
2017-Feb-14 09:33N 38°26' W 027°38'10 9.8
2017-Feb-14 08:33N 38°24' W 027°26'10 9.8
2017-Feb-14 07:34N 38°22' W 027°14'1010.4
2017-Feb-14 06:33N 38°21' W 027°01'1110.9
2017-Feb-14 05:33N 38°19' W 026°47'1110.8
2017-Feb-14 04:33N 38°18' W 026°33'1110.5
2017-Feb-14 03:33N 38°16' W 026°20'1110.6
2017-Feb-14 02:33N 38°13' W 026°07'1110.7
2017-Feb-14 01:33N 38°11' W 025°54'1110.6
2017-Feb-14 00:34N 38°09' W 025°40'1110.9
2017-Feb-13 23:33N 38°06' W 025°27'1110.8
2017-Feb-13 22:33N 38°05' W 025°13'1110.6
2017-Feb-13 21:33N 38°02' W 025°00'1110.7
2017-Feb-13 20:33N 38°00' W 024°47'1110.6
2017-Feb-13 19:33N 37°58' W 024°34'1110.6
2017-Feb-13 18:33N 37°56' W 024°21'1110.7
2017-Feb-13 17:33N 37°54' W 024°07'1110.6
2017-Feb-13 16:33N 37°53' W 023°54'  
Track history (hours):
 
Tides and Currents Weather Stations Pressure Air Temp Water Temp Dewpoint Dewpoint Depression Visibility Wind Speed Wind Dir Waves Ship Positions

Epic Capri

Last reported at 2017-Feb-21 18:32 UTC. Time now 2017-Feb-21 19:06 UTC.
Position N 37°57' W 008°53'.

Length 99 m; draft 5 m.

Type: Ship (hazmat cat B). MMSI: 256325000.

Date/timePositionNaut miles runAvg speedWind from/ knotsBaromVisibWave heightAir tempDewpointWater temp
2017-Feb-21 18:32N 37°57' W 008°53'0 0.0
2017-Feb-21 17:32N 37°57' W 008°53'0 0.0
2017-Feb-21 16:31N 37°57' W 008°53'0 0.0
2017-Feb-21 15:32N 37°57' W 008°53'0 0.0
2017-Feb-21 14:31N 37°57' W 008°53'0 0.0
2017-Feb-21 13:32N 37°57' W 008°53'0 0.0
2017-Feb-21 12:32N 37°57' W 008°53'0 0.0
2017-Feb-21 11:32N 37°57' W 008°53'0 0.0
2017-Feb-21 10:32N 37°57' W 008°53'0 0.0
2017-Feb-21 09:29N 37°57' W 008°53'2 2.7
2017-Feb-21 08:33N 37°55' W 008°52'0 0.1
2017-Feb-21 07:33N 37°55' W 008°52'0 0.0
2017-Feb-21 06:33N 37°55' W 008°52'0 0.0
2017-Feb-21 05:33N 37°55' W 008°52'0 0.0
2017-Feb-21 04:33N 37°55' W 008°52'0 0.0
2017-Feb-21 03:33N 37°55' W 008°52'0 0.0
2017-Feb-21 02:33N 37°55' W 008°52'0 0.0
2017-Feb-21 01:33N 37°55' W 008°52'0 0.0
2017-Feb-21 00:33N 37°55' W 008°52'0 0.0
2017-Feb-20 23:33N 37°55' W 008°51'0 0.1
2017-Feb-20 22:33N 37°55' W 008°52'0 0.0
2017-Feb-20 21:33N 37°55' W 008°52'0 0.0
2017-Feb-20 20:33N 37°55' W 008°52'0 0.0
2017-Feb-20 19:33N 37°55' W 008°52'0 0.0
2017-Feb-20 18:33N 37°55' W 008°52'0 0.0
2017-Feb-20 17:30N 37°55' W 008°52'0 0.0
2017-Feb-20 16:33N 37°55' W 008°52'0 0.0
2017-Feb-20 15:33N 37°55' W 008°52'0 0.0
2017-Feb-20 14:33N 37°55' W 008°52'0 0.0
2017-Feb-20 13:33N 37°55' W 008°52'0 0.0
2017-Feb-20 12:33N 37°55' W 008°52'0 0.0
2017-Feb-20 11:33N 37°55' W 008°52'0 0.1
2017-Feb-20 10:33N 37°55' W 008°51'6 5.6
2017-Feb-20 09:33N 37°53' W 008°58'1010.1
2017-Feb-20 08:33N 37°53' W 009°11'10 9.6
2017-Feb-20 07:33N 37°52' W 009°23'11 9.5
2017-Feb-20 06:26N 37°51' W 009°37'5110.0
2017-Feb-20 01:19N 37°53' W 010°41'810.1
2017-Feb-20 00:31N 37°53' W 010°51'  
2017-Feb-17 09:33N 37°52' W 024°05'1110.9
2017-Feb-17 08:33N 37°49' W 024°18'1110.9
2017-Feb-17 07:34N 37°46' W 024°31'1111.0
2017-Feb-17 06:33N 37°43' W 024°45'1111.1
2017-Feb-17 05:33N 37°40' W 024°58'1111.2
2017-Feb-17 04:34N 37°40' W 025°13'1111.3
2017-Feb-17 03:34N 37°40' W 025°27'10 9.9
2017-Feb-17 02:33N 37°44' W 025°38'1 1.3
2017-Feb-17 01:31N 37°44' W 025°40'0 0.0
2017-Feb-17 00:31N 37°44' W 025°40'0 0.0
2017-Feb-16 23:31N 37°44' W 025°40'0 0.0
2017-Feb-16 22:31N 37°44' W 025°40'0 0.0
2017-Feb-16 21:31N 37°44' W 025°40'0 0.0
2017-Feb-16 20:31N 37°44' W 025°40'0 0.0
2017-Feb-16 19:31N 37°44' W 025°40'0 0.0
2017-Feb-16 18:31N 37°44' W 025°40'0 0.0
2017-Feb-16 17:31N 37°44' W 025°40'0 0.0
2017-Feb-16 16:31N 37°44' W 025°40'0 0.0
2017-Feb-16 15:31N 37°44' W 025°40'0 0.0
2017-Feb-16 14:31N 37°44' W 025°40'0 0.0
2017-Feb-16 13:31N 37°44' W 025°40'0 0.0
2017-Feb-16 12:31N 37°44' W 025°40'0 0.0
2017-Feb-16 11:31N 37°44' W 025°40'0 0.0
2017-Feb-16 10:31N 37°44' W 025°40'0 0.0
2017-Feb-16 09:31N 37°44' W 025°40'1 1.1
2017-Feb-16 08:34N 37°44' W 025°39'1 1.4
2017-Feb-16 07:34N 37°42' W 025°40'2 2.0
2017-Feb-16 06:33N 37°43' W 025°42'4 3.9
2017-Feb-16 05:33N 37°44' W 025°47'1010.1
2017-Feb-16 04:34N 37°51' W 025°56'1010.1
2017-Feb-16 03:33N 37°58' W 026°05'1110.7
2017-Feb-16 02:34N 38°06' W 026°15'1010.4
2017-Feb-16 01:33N 38°13' W 026°24'1010.4
2017-Feb-16 00:34N 38°21' W 026°33'1010.4
2017-Feb-15 23:33N 38°28' W 026°42'1010.2
2017-Feb-15 22:33N 38°35' W 026°51'10 9.5
2017-Feb-15 21:33N 38°42' W 027°00'2 0.2
2017-Feb-15 10:33N 38°43' W 027°03'3 2.9
2017-Feb-15 09:33N 38°41' W 027°00'8 8.1
2017-Feb-15 08:31N 38°35' W 027°07'1010.3
2017-Feb-15 07:33N 38°32' W 027°19'1010.5
2017-Feb-15 06:33N 38°30' W 027°32'1010.5
2017-Feb-15 05:33N 38°28' W 027°45'1110.7
2017-Feb-15 04:33N 38°30' W 027°59'1110.6
2017-Feb-15 03:33N 38°34' W 028°11'1110.7
2017-Feb-15 02:33N 38°36' W 028°25'10 9.8
2017-Feb-15 01:33N 38°32' W 028°36'1 0.8
2017-Feb-15 00:33N 38°32' W 028°37'0 0.0
2017-Feb-14 23:33N 38°32' W 028°37'0 0.0
2017-Feb-14 22:33N 38°32' W 028°37'0 0.0
2017-Feb-14 21:33N 38°32' W 028°37'0 0.0
2017-Feb-14 20:33N 38°32' W 028°37'0 0.0
2017-Feb-14 19:33N 38°32' W 028°37'0 0.0
2017-Feb-14 18:33N 38°32' W 028°37'0 0.0
2017-Feb-14 17:33N 38°32' W 028°37'3 2.8
2017-Feb-14 16:33N 38°33' W 028°34'0 0.4
2017-Feb-14 15:33N 38°33' W 028°34'0 0.5
2017-Feb-14 14:34N 38°33' W 028°34'6 5.6
2017-Feb-14 13:33N 38°36' W 028°28'10 9.7
2017-Feb-14 12:33N 38°35' W 028°16'10 9.9
2017-Feb-14 11:33N 38°32' W 028°04'1010.4
2017-Feb-14 10:33N 38°28' W 027°52'1010.4
2017-Feb-14 09:33N 38°26' W 027°38'10 9.8
2017-Feb-14 08:33N 38°24' W 027°26'10 9.8
2017-Feb-14 07:34N 38°22' W 027°14'1010.4
2017-Feb-14 06:33N 38°21' W 027°01'1110.9
2017-Feb-14 05:33N 38°19' W 026°47'1110.8
2017-Feb-14 04:33N 38°18' W 026°33'1110.5
2017-Feb-14 03:33N 38°16' W 026°20'1110.6
2017-Feb-14 02:33N 38°13' W 026°07'1110.7
2017-Feb-14 01:33N 38°11' W 025°54'1110.6
2017-Feb-14 00:34N 38°09' W 025°40'1110.9
2017-Feb-13 23:33N 38°06' W 025°27'1110.8
2017-Feb-13 22:33N 38°05' W 025°13'1110.6
2017-Feb-13 21:33N 38°02' W 025°00'1110.7
2017-Feb-13 20:33N 38°00' W 024°47'1110.6
2017-Feb-13 19:33N 37°58' W 024°34'1110.6
2017-Feb-13 18:33N 37°56' W 024°21'1110.7
2017-Feb-13 17:33N 37°54' W 024°07'1110.6
2017-Feb-13 16:33N 37°53' W 023°54'  

Dump ship's entire track history